Terminal Aerodrome Forecast
Issued by NWS

Home | Current Version | Previous Version | Text Only | Print | Product List | Glossary On
Versions: 1 2 3 4 5 6 7 8 9 10 11 12 13 14 15 16 17 18 19
000
FTUS43 KICT 240552 AAA
TAFCNU
TAF AMD
KCNU 240552Z 2406/2506 08009KT P6SM SCT050 OVC150
     FM240700 09009KT P6SM OVC050
      TEMPO 2407/2408 VRB25G35KT 3SM TSRA OVC035CB
     FM240900 13013KT P6SM VCTS OVC050CB
     FM241300 16017KT P6SM OVC035
     FM241500 17017G22KT P6SM OVC025=

USA.gov is the U.S. government's official web portal to all federal, state and local government web resources and services.